Time;durP1;ratioP1;P1;durP2;ratioP2;P2;SDS_P1;SDS_P2;PMS_P1;PMS_P2;Temp;Humidity;BMP_temperature;BMP_pressure;BME280_temperature;BME280_humidity;BME280_pressure;Samples;Min_cycle;Max_cycle;Signal;HPM_P1;HPM_P2
2023/06/05 00:00:41;;;;;;;4.33;2.60;;;19.80;45.10;;;;;;5073732;28;20539;-56
2023/06/05 00:03:09;;;;;;;4.60;2.60;;;19.70;45.20;;;;;;5073699;28;20474;-56
2023/06/05 00:05:36;;;;;;;3.70;2.60;;;19.70;45.50;;;;;;5073252;28;21008;-56
2023/06/05 00:08:03;;;;;;;5.07;2.80;;;19.70;45.70;;;;;;5073440;28;20448;-56
2023/06/05 00:10:30;;;;;;;4.80;3.30;;;19.60;45.90;;;;;;5073710;28;20456;-56
2023/06/05 00:12:57;;;;;;;2.77;2.33;;;19.60;46.10;;;;;;5072603;28;21050;-56
2023/06/05 00:15:23;;;;;;;2.87;2.57;;;19.60;46.50;;;;;;5073551;28;20456;-56
2023/06/05 00:17:50;;;;;;;2.17;1.97;;;19.60;46.70;;;;;;5073367;28;20984;-56
2023/06/05 00:20:18;;;;;;;4.13;2.67;;;19.50;46.90;;;;;;5073304;28;20950;-56
2023/06/05 00:22:47;;;;;;;4.27;2.53;;;19.50;47.20;;;;;;5073379;28;20441;-56
2023/06/05 00:25:13;;;;;;;2.80;2.50;;;19.50;47.30;;;;;;5073384;28;20453;-56
2023/06/05 00:27:41;;;;;;;4.67;2.20;;;19.50;47.60;;;;;;5073338;28;20983;-56
2023/06/05 00:30:09;;;;;;;5.03;2.73;;;19.50;47.90;;;;;;5072974;28;20924;-56
2023/06/05 00:32:36;;;;;;;2.77;2.43;;;19.40;47.90;;;;;;5072869;28;20987;-56
2023/06/05 00:35:03;;;;;;;2.87;2.17;;;19.40;48.40;;;;;;5072990;28;20854;-56
2023/06/05 00:37:31;;;;;;;2.53;2.13;;;19.40;48.60;;;;;;5073154;28;20469;-56
2023/06/05 00:39:58;;;;;;;2.60;2.10;;;19.30;48.70;;;;;;5073203;28;20448;-56
2023/06/05 00:42:26;;;;;;;5.33;2.83;;;19.30;49.00;;;;;;5073245;28;20452;-56
2023/06/05 00:44:53;;;;;;;4.60;2.40;;;19.30;49.40;;;;;;5073279;28;20453;-56
2023/06/05 00:47:20;;;;;;;3.73;2.50;;;19.20;49.30;;;;;;5073066;28;20471;-56
2023/06/05 00:49:46;;;;;;;4.17;2.40;;;19.20;49.50;;;;;;5073102;28;20448;-56
2023/06/05 00:52:13;;;;;;;3.70;2.53;;;19.20;49.90;;;;;;5073168;28;20444;-56
2023/06/05 00:54:42;;;;;;;3.13;2.83;;;19.20;50.20;;;;;;5073836;28;20480;-56
2023/06/05 00:57:09;;;;;;;4.20;2.07;;;19.20;50.40;;;;;;5073059;28;20473;-56
2023/06/05 00:59:37;;;;;;;4.53;2.10;;;19.20;50.60;;;;;;5073268;28;20472;-56
2023/06/05 01:02:06;;;;;;;3.27;2.07;;;19.10;50.60;;;;;;5073021;28;20498;-56
2023/06/05 01:04:33;;;;;;;3.07;2.50;;;19.10;50.80;;;;;;5073029;28;20480;-56
2023/06/05 01:07:00;;;;;;;3.10;2.43;;;19.00;51.30;;;;;;5072928;28;20469;-56
2023/06/05 01:09:28;;;;;;;3.83;2.87;;;19.00;51.40;;;;;;5072980;28;20521;-56
2023/06/05 01:12:01;;;;;;;3.60;2.90;;;19.00;51.60;;;;;;5072652;28;20468;-56
2023/06/05 01:14:30;;;;;;;3.10;2.43;;;18.90;51.80;;;;;;5072558;28;20465;-56
2023/06/05 01:17:00;;;;;;;4.73;2.60;;;18.90;52.20;;;;;;5072498;28;20477;-56
2023/06/05 01:19:30;;;;;;;5.20;2.60;;;18.80;52.50;;;;;;5072899;28;20460;-56
2023/06/05 01:21:56;;;;;;;3.40;2.27;;;18.80;52.90;;;;;;5072871;28;20487;-56
2023/06/05 01:24:25;;;;;;;6.80;2.70;;;18.80;53.00;;;;;;5075835;28;20815;-56
2023/06/05 01:27:02;;;;;;;4.70;3.27;;;18.70;53.30;;;;;;5076533;28;20502;-56
2023/06/05 01:29:35;;;;;;;3.50;2.50;;;18.70;53.60;;;;;;5076721;28;20428;-56
2023/06/05 01:32:07;;;;;;;3.67;3.27;;;18.70;53.60;;;;;;5076615;28;20432;-56
2023/06/05 01:34:37;;;;;;;3.43;2.30;;;18.70;53.80;;;;;;5076611;28;20471;-56
2023/06/05 01:37:08;;;;;;;4.70;3.00;;;18.60;54.00;;;;;;5076747;28;20513;-56
2023/06/05 01:39:37;;;;;;;2.70;2.50;;;18.60;54.10;;;;;;5076539;28;20459;-56
2023/06/05 01:42:05;;;;;;;7.43;2.73;;;18.60;54.30;;;;;;5076624;28;20451;-56
2023/06/05 01:44:32;;;;;;;3.47;2.50;;;18.50;54.60;;;;;;5076318;28;20444;-56
2023/06/05 01:46:59;;;;;;;4.40;2.40;;;18.50;54.90;;;;;;5076380;28;20506;-56
2023/06/05 01:49:26;;;;;;;4.50;3.00;;;18.50;54.90;;;;;;5076183;28;20452;-56
2023/06/05 01:51:54;;;;;;;2.20;2.00;;;18.50;55.00;;;;;;5076203;28;20448;-56
2023/06/05 01:54:23;;;;;;;4.97;3.00;;;18.40;55.30;;;;;;5076084;28;20484;-56
2023/06/05 01:56:52;;;;;;;3.80;2.43;;;18.40;55.60;;;;;;5076085;28;20562;-56
2023/06/05 01:59:19;;;;;;;3.33;2.73;;;18.30;55.60;;;;;;5075653;28;20969;-56
2023/06/05 02:01:46;;;;;;;3.07;2.77;;;18.40;56.00;;;;;;5076229;28;20456;-56
2023/06/05 02:04:16;;;;;;;4.60;3.00;;;18.30;56.30;;;;;;5075955;28;20531;-56
2023/06/05 02:06:43;;;;;;;3.50;2.70;;;18.30;56.50;;;;;;5076007;28;20512;-56
2023/06/05 02:09:12;;;;;;;6.50;3.00;;;18.30;56.60;;;;;;5075867;28;20542;-56
2023/06/05 02:11:39;;;;;;;5.70;2.87;;;18.30;56.70;;;;;;5075533;28;20460;-56
2023/06/05 02:14:08;;;;;;;3.90;2.50;;;18.30;56.80;;;;;;5075420;28;21030;-56
2023/06/05 02:16:36;;;;;;;4.37;2.47;;;18.20;56.90;;;;;;5075641;28;20472;-56
2023/06/05 02:19:04;;;;;;;4.80;3.33;;;18.20;57.20;;;;;;5075700;28;20544;-56
2023/06/05 02:21:32;;;;;;;3.17;2.80;;;18.10;57.60;;;;;;5075277;28;20880;-56
2023/06/05 02:24:00;;;;;;;4.23;3.10;;;18.10;57.50;;;;;;5075615;28;20476;-56
2023/06/05 02:26:27;;;;;;;3.47;3.10;;;18.00;57.70;;;;;;5075617;28;20469;-56
2023/06/05 02:28:54;;;;;;;3.73;3.30;;;18.00;58.00;;;;;;5075536;28;20505;-56
2023/06/05 02:31:25;;;;;;;3.13;2.70;;;18.00;58.00;;;;;;5075495;28;20561;-56
2023/06/05 02:33:52;;;;;;;5.77;3.57;;;18.00;58.40;;;;;;5075353;28;20518;-56
2023/06/05 02:36:19;;;;;;;4.83;2.47;;;17.90;58.60;;;;;;5074325;28;20480;-56
2023/06/05 02:38:49;;;;;;;4.43;3.23;;;17.90;58.70;;;;;;5075264;28;20794;-56
2023/06/05 02:41:16;;;;;;;3.47;2.77;;;17.80;58.60;;;;;;5075239;28;20456;-56
2023/06/05 02:43:43;;;;;;;4.40;2.90;;;17.80;58.70;;;;;;5075182;28;20440;-56
2023/06/05 02:46:10;;;;;;;3.17;2.70;;;17.80;59.00;;;;;;5075605;28;20480;-56
2023/06/05 02:48:38;;;;;;;8.63;3.60;;;17.70;59.10;;;;;;5075261;28;20464;-56
2023/06/05 02:51:06;;;;;;;4.43;2.57;;;17.70;59.40;;;;;;5075059;28;20464;-56
2023/06/05 02:53:33;;;;;;;4.17;3.23;;;17.70;59.60;;;;;;5074612;28;21076;-56
2023/06/05 02:56:01;;;;;;;3.30;3.00;;;17.60;59.70;;;;;;5074892;28;20526;-56
2023/06/05 02:58:28;;;;;;;4.10;2.70;;;17.60;59.90;;;;;;5074897;28;20453;-56
2023/06/05 03:00:55;;;;;;;3.87;3.57;;;17.60;59.90;;;;;;5074930;28;20492;-56
2023/06/05 03:03:25;;;;;;;6.13;3.00;;;17.50;60.10;;;;;;5074749;28;20445;-56
2023/06/05 03:05:53;;;;;;;4.07;3.67;;;17.50;60.20;;;;;;5074762;28;20498;-56
2023/06/05 03:08:20;;;;;;;4.53;3.37;;;17.50;60.50;;;;;;5074689;28;20444;-56
2023/06/05 03:10:47;;;;;;;4.80;2.90;;;17.40;60.80;;;;;;5074519;28;20543;-56
2023/06/05 03:13:14;;;;;;;5.27;3.43;;;17.40;61.10;;;;;;5074557;28;20433;-56
2023/06/05 03:15:42;;;;;;;4.00;3.03;;;17.40;60.90;;;;;;5074495;28;20586;-56
2023/06/05 03:18:08;;;;;;;5.30;2.93;;;17.40;61.30;;;;;;5074252;28;20453;-56
2023/06/05 03:20:36;;;;;;;8.60;3.23;;;17.30;61.90;;;;;;5074154;28;20828;-56
2023/06/05 03:23:04;;;;;;;3.30;3.00;;;17.30;61.70;;;;;;5074673;28;20449;-56
2023/06/05 03:25:30;;;;;;;4.20;3.13;;;17.30;61.90;;;;;;5074259;28;20445;-56
2023/06/05 03:27:57;;;;;;;6.40;3.30;;;17.30;62.30;;;;;;5074070;28;20988;-56
2023/06/05 03:30:23;;;;;;;5.13;2.77;;;17.30;62.40;;;;;;5074290;28;20453;-57
2023/06/05 03:32:50;;;;;;;4.90;3.33;;;17.20;62.20;;;;;;5074250;28;20456;-57
2023/06/05 03:35:18;;;;;;;4.70;2.93;;;17.20;62.10;;;;;;5073721;28;21120;-57
2023/06/05 03:37:44;;;;;;;7.57;3.73;;;17.20;62.00;;;;;;5074158;28;20490;-57
2023/06/05 03:40:13;;;;;;;4.70;4.20;;;17.20;62.50;;;;;;5073813;28;20939;-57
2023/06/05 03:42:40;;;;;;;3.63;3.00;;;17.20;62.70;;;;;;5074001;28;20506;-57
2023/06/05 03:45:08;;;;;;;5.77;3.27;;;17.20;62.80;;;;;;5074280;28;20860;-57
2023/06/05 03:47:35;;;;;;;7.63;3.30;;;17.20;62.80;;;;;;5074098;28;20469;-57
2023/06/05 03:50:03;;;;;;;3.93;3.53;;;17.10;62.60;;;;;;5073571;28;20883;-57
2023/06/05 03:52:30;;;;;;;7.87;3.13;;;17.10;62.90;;;;;;5073547;28;20939;-57
2023/06/05 03:54:57;;;;;;;4.37;3.30;;;17.20;63.10;;;;;;5073761;28;20484;-57
2023/06/05 03:57:25;;;;;;;6.83;3.07;;;17.10;63.40;;;;;;5073738;28;20476;-56
2023/06/05 03:59:52;;;;;;;6.90;3.37;;;17.10;63.60;;;;;;5073850;28;20817;-56
2023/06/05 04:02:19;;;;;;;3.77;3.40;;;17.10;63.70;;;;;;5073802;28;20446;-57
2023/06/05 04:04:45;;;;;;;3.57;3.23;;;17.10;63.60;;;;;;5073661;28;20444;-57
2023/06/05 04:07:12;;;;;;;5.60;3.80;;;17.00;63.50;;;;;;5073684;28;20464;-57
2023/06/05 04:09:39;;;;;;;5.43;3.10;;;17.00;63.70;;;;;;5073716;28;20855;-57
2023/06/05 04:12:06;;;;;;;5.40;3.30;;;17.10;64.00;;;;;;5073394;28;20460;-57
2023/06/05 04:14:35;;;;;;;5.20;3.30;;;17.00;64.30;;;;;;5073508;28;20484;-56
2023/06/05 04:17:03;;;;;;;3.70;3.40;;;17.00;64.20;;;;;;5074485;28;20463;-57
2023/06/05 04:19:30;;;;;;;4.53;3.70;;;17.00;64.40;;;;;;5073550;28;20444;-57
2023/06/05 04:21:57;;;;;;;4.47;3.40;;;17.10;64.20;;;;;;5073218;28;20861;-57
2023/06/05 04:24:25;;;;;;;4.93;3.87;;;17.00;64.50;;;;;;5073463;28;20445;-57
2023/06/05 04:26:51;;;;;;;6.83;3.80;;;17.00;64.90;;;;;;5073297;28;20518;-57
2023/06/05 04:29:18;;;;;;;7.20;3.80;;;17.00;64.80;;;;;;5073223;28;20978;-57
2023/06/05 04:31:47;;;;;;;3.67;3.07;;;17.00;65.20;;;;;;5073031;28;20947;-57
2023/06/05 04:34:14;;;;;;;8.00;3.40;;;17.00;65.40;;;;;;5073282;28;20476;-57
2023/06/05 04:36:41;;;;;;;4.50;3.27;;;17.00;65.50;;;;;;5073248;28;20551;-57
2023/06/05 04:39:14;;;;;;;4.07;3.63;;;17.00;65.70;;;;;;5073301;28;20449;-57
2023/06/05 04:41:44;;;;;;;4.00;3.50;;;17.00;65.80;;;;;;5073271;28;20799;-57
2023/06/05 04:44:12;;;;;;;3.97;3.60;;;17.00;66.20;;;;;;5074118;28;20786;-57
2023/06/05 04:46:39;;;;;;;6.70;4.80;;;17.00;66.20;;;;;;5072807;28;20483;-57
2023/06/05 04:49:07;;;;;;;5.63;3.57;;;17.00;66.40;;;;;;5073307;28;20459;-57
2023/06/05 04:51:34;;;;;;;6.07;4.40;;;17.10;66.40;;;;;;5073247;28;20491;-57
2023/06/05 04:54:01;;;;;;;7.00;3.50;;;17.10;66.60;;;;;;5073002;28;21047;-57
2023/06/05 04:56:28;;;;;;;6.37;3.53;;;17.10;66.60;;;;;;5073287;28;20986;-57
2023/06/05 04:58:54;;;;;;;5.83;3.50;;;17.10;66.40;;;;;;5075910;28;20452;-57
2023/06/05 05:01:21;;;;;;;4.50;3.70;;;17.20;66.90;;;;;;5077905;28;20926;-57
2023/06/05 05:03:48;;;;;;;10.10;4.13;;;17.20;66.90;;;;;;5077358;28;20819;-57
2023/06/05 05:06:17;;;;;;;4.63;3.60;;;17.20;67.00;;;;;;5076956;28;21035;-57
2023/06/05 05:08:45;;;;;;;6.90;4.13;;;17.30;66.90;;;;;;5076931;28;20938;-57
2023/06/05 05:11:12;;;;;;;4.30;3.67;;;17.30;67.20;;;;;;5077002;28;20468;-57
2023/06/05 05:13:39;;;;;;;4.60;4.00;;;17.30;67.50;;;;;;5077078;28;20491;-57
2023/06/05 05:16:07;;;;;;;4.07;3.53;;;17.30;67.50;;;;;;5076627;28;21016;-57
2023/06/05 05:18:34;;;;;;;7.70;4.50;;;17.40;67.70;;;;;;5076894;28;20965;-57
2023/06/05 05:21:01;;;;;;;5.03;3.70;;;17.40;67.60;;;;;;5076840;28;20444;-56
2023/06/05 05:23:29;;;;;;;4.90;3.83;;;17.40;67.30;;;;;;5076904;28;20460;-57
2023/06/05 05:25:55;;;;;;;8.33;3.83;;;17.50;67.10;;;;;;5076842;28;20468;-56
2023/06/05 05:28:22;;;;;;;7.93;3.80;;;17.50;67.00;;;;;;5076808;28;20478;-57
2023/06/05 05:30:49;;;;;;;5.60;3.47;;;17.60;67.10;;;;;;5077023;28;20457;-56
2023/06/05 05:33:16;;;;;;;8.90;4.63;;;17.60;67.10;;;;;;5077186;28;20474;-56
2023/06/05 05:35:43;;;;;;;5.23;3.80;;;17.70;66.70;;;;;;5077371;28;20488;-57
2023/06/05 05:38:09;;;;;;;5.43;4.27;;;17.70;66.40;;;;;;5078768;28;20451;-56
2023/06/05 05:40:37;;;;;;;5.10;3.47;;;17.70;66.20;;;;;;5077603;28;21000;-57
2023/06/05 05:43:04;;;;;;;6.70;4.70;;;17.80;66.70;;;;;;5076416;28;20860;-57
2023/06/05 05:45:31;;;;;;;5.03;4.63;;;17.90;66.70;;;;;;5076245;28;20445;-57
2023/06/05 05:47:57;;;;;;;6.00;4.13;;;17.90;66.70;;;;;;5076338;28;20543;-56
2023/06/05 05:50:24;;;;;;;6.40;4.10;;;18.00;66.50;;;;;;5076197;28;20452;-56
2023/06/05 05:52:53;;;;;;;6.57;4.70;;;18.10;66.50;;;;;;5076270;28;20460;-57
2023/06/05 05:55:19;;;;;;;6.70;4.40;;;18.20;66.60;;;;;;5076022;28;20480;-56
2023/06/05 05:57:47;;;;;;;6.97;4.13;;;18.20;65.50;;;;;;5076062;28;20453;-56
2023/06/05 06:00:15;;;;;;;4.77;4.20;;;18.30;65.30;;;;;;5075861;28;20455;-56
2023/06/05 06:02:43;;;;;;;7.47;3.90;;;18.40;65.00;;;;;;5076034;28;20525;-56
2023/06/05 06:05:12;;;;;;;4.83;3.80;;;18.40;65.10;;;;;;5075674;28;20796;-57
2023/06/05 06:07:40;;;;;;;5.00;3.63;;;18.50;64.80;;;;;;5075799;28;20472;-57
2023/06/05 06:10:08;;;;;;;9.80;4.10;;;18.60;64.30;;;;;;5074611;28;20455;-56
2023/06/05 06:12:36;;;;;;;4.67;4.13;;;18.70;64.00;;;;;;5075431;28;20560;-56
2023/06/05 06:15:05;;;;;;;8.30;4.30;;;18.80;63.90;;;;;;5075405;28;20484;-56
2023/06/05 06:17:31;;;;;;;5.87;4.40;;;18.90;64.40;;;;;;5075656;28;20472;-57
2023/06/05 06:19:58;;;;;;;4.63;4.23;;;18.90;63.60;;;;;;5075782;28;20477;-57
2023/06/05 06:22:26;;;;;;;6.50;4.40;;;19.10;63.00;;;;;;5075343;28;20946;-56
2023/06/05 06:24:53;;;;;;;5.80;3.80;;;19.20;63.10;;;;;;5075991;28;20932;-56
2023/06/05 06:27:21;;;;;;;6.30;3.80;;;19.30;63.00;;;;;;5075125;28;21017;-56
2023/06/05 06:29:49;;;;;;;3.97;3.60;;;19.30;62.80;;;;;;5075478;28;20448;-56
2023/06/05 06:32:18;;;;;;;6.83;4.57;;;19.50;62.40;;;;;;5075410;28;20488;-56
2023/06/05 06:34:44;;;;;;;4.43;3.70;;;19.60;62.10;;;;;;5075383;28;20498;-56
2023/06/05 06:37:11;;;;;;;5.23;3.97;;;19.70;61.80;;;;;;5075323;28;20457;-56
2023/06/05 06:39:38;;;;;;;7.27;4.83;;;19.80;61.30;;;;;;5075352;28;20456;-56
2023/06/05 06:42:05;;;;;;;5.03;4.60;;;19.90;61.30;;;;;;5075261;28;20467;-56
2023/06/05 06:44:32;;;;;;;6.20;3.63;;;20.10;61.70;;;;;;5075143;28;20445;-56
2023/06/05 06:46:58;;;;;;;4.80;3.90;;;20.20;60.60;;;;;;5069929;28;20477;-56
2023/06/05 06:49:27;;;;;;;6.67;4.90;;;20.30;59.90;;;;;;5066616;28;20519;-56
2023/06/05 06:51:54;;;;;;;5.67;4.10;;;20.40;59.40;;;;;;5059022;28;20453;-56
2023/06/05 06:54:21;;;;;;;4.70;3.70;;;20.60;58.80;;;;;;5061021;28;20481;-56
2023/06/05 06:56:49;;;;;;;7.90;4.13;;;20.70;58.70;;;;;;5062498;28;20534;-56
2023/06/05 06:59:16;;;;;;;5.00;4.17;;;20.90;58.70;;;;;;5062180;28;20445;-56
2023/06/05 07:01:45;;;;;;;6.40;3.50;;;21.00;58.50;;;;;;5054416;28;20445;-56
2023/06/05 07:04:12;;;;;;;5.20;4.40;;;21.20;58.00;;;;;;5054780;28;20535;-56
2023/06/05 07:06:40;;;;;;;6.93;4.87;;;21.40;57.50;;;;;;5054436;28;20511;-56
2023/06/05 07:09:07;;;;;;;4.10;3.70;;;21.50;56.10;;;;;;5054705;28;20449;-56
2023/06/05 07:11:35;;;;;;;5.00;3.40;;;21.60;56.20;;;;;;5054409;28;20465;-56
2023/06/05 07:14:01;;;;;;;6.40;3.77;;;21.70;55.60;;;;;;5054606;28;20450;-56
2023/06/05 07:16:28;;;;;;;4.67;4.07;;;21.80;54.90;;;;;;5054756;28;20485;-56
2023/06/05 07:18:55;;;;;;;10.63;3.77;;;21.90;54.80;;;;;;5054513;28;20510;-56
2023/06/05 07:21:22;;;;;;;8.17;4.10;;;22.10;54.90;;;;;;5054099;28;20453;-56
2023/06/05 07:23:51;;;;;;;6.50;4.00;;;22.30;54.40;;;;;;5054503;28;20450;-57
2023/06/05 07:26:18;;;;;;;6.53;4.00;;;22.40;53.70;;;;;;5054381;28;20501;-57
2023/06/05 07:28:46;;;;;;;7.20;3.37;;;22.60;52.90;;;;;;5054311;28;20540;-57
2023/06/05 07:31:14;;;;;;;4.00;3.60;;;22.80;52.90;;;;;;5054359;28;20450;-57
2023/06/05 07:33:41;;;;;;;6.93;3.77;;;23.00;53.00;;;;;;5054218;28;20453;-57
2023/06/05 07:36:10;;;;;;;5.27;3.40;;;23.20;51.90;;;;;;5054094;28;20920;-57
2023/06/05 07:38:38;;;;;;;4.83;3.30;;;23.40;51.80;;;;;;5054152;28;20490;-57
2023/06/05 07:41:06;;;;;;;5.00;3.07;;;23.60;51.30;;;;;;5054117;28;20453;-57
2023/06/05 07:43:33;;;;;;;5.67;2.83;;;23.80;50.70;;;;;;5054362;28;20450;-57
2023/06/05 07:45:59;;;;;;;5.87;2.43;;;24.00;50.20;;;;;;5053605;28;20976;-57
2023/06/05 07:48:26;;;;;;;5.20;2.70;;;24.30;49.90;;;;;;5053985;28;20441;-57
2023/06/05 07:50:53;;;;;;;4.83;2.83;;;24.50;49.00;;;;;;5053965;28;20817;-57
2023/06/05 07:53:21;;;;;;;3.60;3.03;;;24.70;48.60;;;;;;5053902;28;20519;-57
2023/06/05 07:55:48;;;;;;;3.97;2.53;;;24.90;47.90;;;;;;5053721;28;20992;-57
2023/06/05 07:58:16;;;;;;;3.20;2.90;;;25.10;47.20;;;;;;5053866;28;20460;-57
2023/06/05 08:00:47;;;;;;;3.00;2.70;;;25.30;46.60;;;;;;5053516;28;20813;-57
2023/06/05 08:03:19;;;;;;;2.77;2.53;;;25.50;46.00;;;;;;5054102;28;20434;-57
2023/06/05 08:05:46;;;;;;;5.03;2.60;;;25.60;45.00;;;;;;5053577;28;20840;-57
2023/06/05 08:08:13;;;;;;;4.47;2.80;;;25.80;44.90;;;;;;5054100;28;20446;-57
2023/06/05 08:10:41;;;;;;;3.80;2.60;;;26.00;44.80;;;;;;5053957;28;20669;-57
2023/06/05 08:13:08;;;;;;;3.80;2.40;;;26.20;44.20;;;;;;5053445;28;20465;-57
2023/06/05 08:15:37;;;;;;;2.60;2.40;;;26.40;43.70;;;;;;5053537;28;20512;-57
2023/06/05 08:18:04;;;;;;;5.80;2.60;;;26.60;43.20;;;;;;5053503;28;20449;-57
2023/06/05 08:20:31;;;;;;;3.60;2.37;;;26.80;42.70;;;;;;5053555;28;20457;-57
2023/06/05 08:22:57;;;;;;;5.43;3.00;;;27.00;42.10;;;;;;5053535;28;20453;-57
2023/06/05 08:25:25;;;;;;;4.17;3.10;;;27.10;41.40;;;;;;5053375;28;20477;-57
2023/06/05 08:27:51;;;;;;;5.80;2.67;;;27.30;41.30;;;;;;5053474;28;20450;-57
2023/06/05 08:30:18;;;;;;;3.33;3.03;;;27.50;41.20;;;;;;5053428;28;20445;-57
2023/06/05 08:32:46;;;;;;;4.90;3.80;;;27.60;41.10;;;;;;5052940;28;20810;-57
2023/06/05 08:35:13;;;;;;;4.83;3.30;;;27.70;40.10;;;;;;5052922;28;20481;-57
2023/06/05 08:37:40;;;;;;;7.30;4.83;;;27.70;40.50;;;;;;5053199;28;20465;-57
2023/06/05 08:40:10;;;;;;;7.77;4.50;;;27.80;40.50;;;;;;5053295;28;20460;-57
2023/06/05 08:42:37;;;;;;;5.33;3.90;;;27.80;40.00;;;;;;5053012;28;20951;-57
2023/06/05 08:45:05;;;;;;;5.37;3.90;;;27.80;40.50;;;;;;5053134;28;20473;-57
2023/06/05 08:47:31;;;;;;;4.23;3.07;;;27.80;40.30;;;;;;5053323;28;20503;-57
2023/06/05 08:50:04;;;;;;;4.50;3.43;;;27.90;39.80;;;;;;5054801;28;20492;-57
2023/06/05 08:52:33;;;;;;;6.97;3.83;;;28.10;40.20;;;;;;5054945;28;20434;-57
2023/06/05 08:55:01;;;;;;;6.53;4.17;;;28.30;40.00;;;;;;5053644;28;20871;-57
2023/06/05 08:57:28;;;;;;;5.50;3.77;;;28.50;39.40;;;;;;5052986;28;20465;-57
2023/06/05 08:59:56;;;;;;;5.90;3.53;;;28.70;38.40;;;;;;5053031;28;20446;-57
2023/06/05 09:02:22;;;;;;;6.10;3.70;;;28.90;38.60;;;;;;5053068;28;20456;-57
2023/06/05 09:04:49;;;;;;;4.50;3.43;;;29.10;37.90;;;;;;5052971;28;20453;-55
2023/06/05 09:07:18;;;;;;;8.13;3.90;;;29.30;37.50;;;;;;5052857;28;20461;-56
2023/06/05 09:09:44;;;;;;;8.20;3.80;;;29.50;37.20;;;;;;5052928;28;20540;-56
2023/06/05 09:12:13;;;;;;;5.03;3.60;;;29.80;36.60;;;;;;5052640;28;20512;-57
2023/06/05 09:14:39;;;;;;;7.63;4.53;;;30.00;36.10;;;;;;5052600;28;20898;-57
2023/06/05 09:17:12;;;;;;;4.50;3.70;;;30.20;35.50;;;;;;5052762;28;20489;-57
2023/06/05 09:19:40;;;;;;;7.00;3.67;;;30.40;35.00;;;;;;5052492;28;20437;-57
2023/06/05 09:22:08;;;;;;;5.17;3.20;;;30.50;34.10;;;;;;5053101;28;20449;-57
2023/06/05 09:24:36;;;;;;;7.90;4.23;;;30.70;34.00;;;;;;5052814;28;20455;-57
2023/06/05 09:27:05;;;;;;;7.00;3.97;;;30.90;33.60;;;;;;5052490;28;20975;-57
2023/06/05 09:29:33;;;;;;;5.97;3.73;;;31.00;33.10;;;;;;5052708;28;20522;-57
2023/06/05 09:32:01;;;;;;;7.30;3.60;;;31.00;32.90;;;;;;5052781;28;20450;-57
2023/06/05 09:34:29;;;;;;;6.97;3.77;;;31.20;32.90;;;;;;5052790;28;20457;-57
2023/06/05 09:36:57;;;;;;;5.60;3.93;;;31.40;33.40;;;;;;5052486;28;20493;-57
2023/06/05 09:39:26;;;;;;;5.33;3.60;;;31.50;32.60;;;;;;5052673;28;20448;-57
2023/06/05 09:41:55;;;;;;;4.43;2.97;;;31.70;32.00;;;;;;5052578;28;20449;-57
2023/06/05 09:44:23;;;;;;;6.20;4.33;;;31.90;31.80;;;;;;5053875;28;20484;-57
2023/06/05 09:46:58;;;;;;;7.10;3.70;;;32.20;31.30;;;;;;5056223;28;20471;-57
2023/06/05 09:49:30;;;;;;;7.10;3.77;;;32.40;31.70;;;;;;5056148;28;20428;-56
2023/06/05 09:51:58;;;;;;;5.30;4.07;;;32.60;31.10;;;;;;5056209;28;20891;-57
2023/06/05 09:54:27;;;;;;;8.30;4.47;;;32.90;30.10;;;;;;5056159;28;20449;-57
2023/06/05 09:56:58;;;;;;;7.90;4.50;;;33.10;29.30;;;;;;5055695;28;21068;-57
2023/06/05 09:59:28;;;;;;;6.90;4.23;;;33.20;29.30;;;;;;5056109;28;20433;-57
2023/06/05 10:01:56;;;;;;;10.17;4.20;;;33.50;29.70;;;;;;5056898;28;20444;-57
2023/06/05 10:04:24;;;;;;;6.93;3.80;;;33.70;29.10;;;;;;5055697;28;20484;-57
2023/06/05 10:06:53;;;;;;;9.83;3.87;;;34.00;29.00;;;;;;5055896;28;20457;-57
2023/06/05 10:09:20;;;;;;;9.40;4.50;;;34.20;28.60;;;;;;5055948;28;20453;-57
2023/06/05 10:11:49;;;;;;;13.30;4.30;;;34.40;27.90;;;;;;5055511;28;20503;-57
2023/06/05 10:14:18;;;;;;;6.60;4.23;;;34.70;28.00;;;;;;5056106;28;20477;-57
2023/06/05 10:16:49;;;;;;;13.20;4.87;;;35.00;27.40;;;;;;5055619;28;20493;-57
2023/06/05 10:19:18;;;;;;;8.60;3.90;;;35.30;26.80;;;;;;5055395;28;20468;-56
2023/06/05 10:21:46;;;;;;;9.00;4.77;;;35.70;26.20;;;;;;5055684;28;20456;-56
2023/06/05 10:24:19;;;;;;;6.60;4.00;;;36.00;25.60;;;;;;5055614;28;20476;-56
2023/06/05 10:27:46;;;;;;;10.33;3.60;;;36.10;24.90;;;;;;5055564;28;20465;-56
2023/06/05 10:30:52;;;;;;;4.73;4.23;;;36.40;25.00;;;;;;5019592;28;20199;-56
2023/06/05 10:33:37;;;;;;;9.70;4.30;;;36.90;24.90;;;;;;5055385;28;20202;-56
2023/06/05 10:36:11;;;;;;;6.60;4.60;;;37.30;24.00;;;;;;5055280;28;20226;-56
2023/06/05 10:38:40;;;;;;;6.88;3.53;;;37.50;23.10;;;;;;5055918;28;20187;-56
2023/06/05 10:41:07;;;;;;;9.18;4.00;;;37.70;23.30;;;;;;5055254;28;20206;-56
2023/06/05 10:43:47;;;;;;;6.03;3.60;;;38.10;23.40;;;;;;5055519;28;20202;-56
2023/06/05 10:46:35;;;;;;;3.72;3.03;;;38.40;22.00;;;;;;5055194;28;20225;-57
2023/06/05 10:49:14;;;;;;;5.38;3.58;;;38.90;21.90;;;;;;5055172;28;20240;-56
2023/06/05 10:51:42;;;;;;;5.95;3.35;;;39.40;21.00;;;;;;5055120;28;20191;-56
2023/06/05 10:54:10;;;;;;;8.43;3.00;;;39.80;20.60;;;;;;5054955;28;20206;-56
2023/06/05 10:56:58;;;;;;;6.75;3.42;;;40.20;20.40;;;;;;5054171;28;20233;-56
2023/06/05 10:59:26;;;;;;;5.50;3.47;;;40.70;20.30;;;;;;5055762;28;20190;-56
2023/06/05 11:02:26;;;;;;;8.98;3.70;;;41.20;19.50;;;;;;5054802;28;20208;-57
2023/06/05 11:05:10;;;;;;;15.70;3.10;;;41.50;18.20;;;;;;5055071;28;20581;-56
2023/06/05 11:07:37;;;;;;;5.45;2.92;;;41.80;18.20;;;;;;5054794;28;20229;-57
2023/06/05 11:10:08;;;;;;;6.00;3.35;;;42.00;18.40;;;;;;5055228;28;20293;-56
2023/06/05 11:12:59;;;;;;;5.00;2.78;;;42.30;18.30;;;;;;5054645;28;20218;-56
2023/06/05 11:15:46;;;;;;;6.38;3.30;;;42.60;17.80;;;;;;5054821;28;20562;-57
2023/06/05 11:18:36;;;;;;;6.25;3.20;;;43.00;17.70;;;;;;5054725;28;20195;-56
2023/06/05 11:21:03;;;;;;;5.47;2.78;;;43.10;17.20;;;;;;5054579;28;20183;-56
2023/06/05 11:23:30;;;;;;;4.25;2.60;;;43.10;16.40;;;;;;5054494;28;20550;-56
2023/06/05 11:25:59;;;;;;;2.80;2.03;;;43.20;16.60;;;;;;5054358;28;20686;-56
2023/06/05 11:28:39;;;;;;;4.28;2.80;;;43.40;16.70;;;;;;5054135;28;20680;-57
2023/06/05 11:31:06;;;;;;;3.13;2.40;;;43.50;15.60;;;;;;5054371;28;20225;-56
2023/06/05 11:33:32;;;;;;;4.03;2.67;;;43.60;15.40;;;;;;5054428;28;20202;-57
2023/06/05 11:36:03;;;;;;;5.18;2.70;;;43.70;16.00;;;;;;5054088;28;20230;-56
2023/06/05 11:38:29;;;;;;;5.18;2.97;;;43.70;16.10;;;;;;5054855;28;20205;-57
2023/06/05 11:40:56;;;;;;;3.45;2.88;;;43.90;16.20;;;;;;5054657;28;20201;-56
2023/06/05 11:43:23;;;;;;;4.85;2.83;;;44.00;16.00;;;;;;5054062;28;20214;-57
2023/06/05 11:45:52;;;;;;;4.25;2.20;;;44.10;15.70;;;;;;5053887;28;20229;-57
2023/06/05 11:48:18;;;;;;;6.35;2.47;;;44.30;16.20;;;;;;5053736;28;20677;-57
2023/06/05 11:50:54;;;;;;;3.22;2.60;;;44.60;15.90;;;;;;5053830;28;20252;-57
2023/06/05 11:53:22;;;;;;;3.13;2.47;;;44.80;15.60;;;;;;5054031;28;20620;-56
2023/06/05 11:56:06;;;;;;;2.78;2.35;;;44.90;15.00;;;;;;5053837;28;20229;-56
2023/06/05 11:58:35;;;;;;;2.40;1.75;;;45.20;14.30;;;;;;5053864;28;20240;-57
2023/06/05 12:01:07;;;;;;;3.05;2.38;;;45.40;14.60;;;;;;5053801;28;20206;-57
2023/06/05 12:03:35;;;;;;;4.72;2.20;;;45.60;14.40;;;;;;5053683;28;20297;-57
2023/06/05 12:06:03;;;;;;;4.25;2.30;;;45.90;14.50;;;;;;5053636;28;20295;-56
2023/06/05 12:08:33;;;;;;;6.45;2.60;;;46.10;14.80;;;;;;5052704;28;20241;-56
2023/06/05 12:11:00;;;;;;;3.92;2.53;;;46.20;14.60;;;;;;5053635;28;20210;-57
2023/06/05 12:13:47;;;;;;;3.63;2.30;;;46.50;14.00;;;;;;5054415;28;20194;-57
2023/06/05 12:16:14;;;;;;;6.25;2.40;;;46.70;14.50;;;;;;5053426;28;20257;-57
2023/06/05 12:18:41;;;;;;;6.75;2.13;;;46.80;14.20;;;;;;5053546;28;20578;-57
2023/06/05 12:21:20;;;;;;;2.78;2.58;;;46.90;12.80;;;;;;5053427;28;20206;-57
2023/06/05 12:23:49;;;;;;;3.28;2.30;;;46.90;13.50;;;;;;5053473;28;20252;-57
2023/06/05 12:26:16;;;;;;;3.65;2.08;;;47.00;13.10;;;;;;5053287;28;20222;-57
2023/06/05 12:28:43;;;;;;;2.88;2.17;;;47.20;13.20;;;;;;5053348;28;20280;-57
2023/06/05 12:31:10;;;;;;;2.67;2.47;;;47.50;13.40;;;;;;5052951;28;20202;-57
2023/06/05 12:33:46;;;;;;;2.90;2.65;;;47.70;13.00;;;;;;5053282;28;20234;-57
2023/06/05 12:36:13;;;;;;;2.95;2.45;;;48.00;12.30;;;;;;5053137;28;20280;-56
2023/06/05 12:38:41;;;;;;;3.75;2.33;;;48.20;12.30;;;;;;5053218;28;20202;-56
2023/06/05 12:41:09;;;;;;;3.05;2.75;;;48.40;12.10;;;;;;5053148;28;20289;-58
2023/06/05 12:43:36;;;;;;;4.40;2.58;;;48.60;11.90;;;;;;5053241;28;20291;-58
2023/06/05 12:46:03;;;;;;;4.53;2.35;;;48.70;11.90;;;;;;5053083;28;20233;-58
2023/06/05 12:48:30;;;;;;;3.63;2.10;;;48.80;11.20;;;;;;5052822;28;20731;-58
2023/06/05 12:50:57;;;;;;;5.28;2.47;;;49.00;11.20;;;;;;5053093;28;20202;-58
2023/06/05 12:53:23;;;;;;;4.35;1.75;;;49.10;11.40;;;;;;5053089;28;20293;-58